Time;durP1;ratioP1;P1;durP2;ratioP2;P2;SDS_P1;SDS_P2;PMS_P1;PMS_P2;Temp;Humidity;BMP_temperature;BMP_pressure;BME280_temperature;BME280_humidity;BME280_pressure;Samples;Min_cycle;Max_cycle;Signal;HPM_P1;HPM_P2
2022/05/25 00:00:37;;;;;;;1.70;1.23;;;19.60;95.70;;;;;;4921452;29;20488;-66
2022/05/25 00:03:09;;;;;;;1.47;1.37;;;19.80;94.80;;;;;;4923958;29;20554;-65
2022/05/25 00:05:41;;;;;;;2.73;1.57;;;20.00;95.60;;;;;;4921588;29;20495;-65
2022/05/25 00:08:13;;;;;;;2.30;1.60;;;20.10;92.30;;;;;;4920942;29;20510;-65
2022/05/25 00:10:45;;;;;;;2.00;1.90;;;20.20;96.00;;;;;;4918328;29;20473;-65
2022/05/25 00:13:16;;;;;;;1.83;1.50;;;20.20;95.50;;;;;;4919060;29;20445;-67
2022/05/25 00:15:47;;;;;;;1.50;1.40;;;20.30;94.70;;;;;;4920175;29;20811;-65
2022/05/25 00:18:18;;;;;;;2.20;2.00;;;20.50;92.90;;;;;;4922908;29;20437;-65
2022/05/25 00:20:50;;;;;;;1.70;1.60;;;20.40;96.30;;;;;;4923425;29;20927;-65
2022/05/25 00:23:22;;;;;;;2.00;1.90;;;20.20;98.10;;;;;;4922031;29;20646;-66
2022/05/25 00:25:54;;;;;;;2.40;2.00;;;20.10;96.40;;;;;;4921029;29;20454;-65
2022/05/25 00:28:25;;;;;;;1.93;1.70;;;20.20;95.90;;;;;;4926254;29;20469;-64
2022/05/25 00:30:57;;;;;;;1.80;1.70;;;20.20;95.80;;;;;;4924274;29;20477;-65
2022/05/25 00:33:28;;;;;;;1.97;1.87;;;19.80;98.40;;;;;;4925547;29;20430;-65
2022/05/25 00:35:59;;;;;;;1.77;1.67;;;19.70;97.30;;;;;;4923818;29;20469;-65
2022/05/25 00:38:30;;;;;;;1.97;1.87;;;19.80;98.60;;;;;;4924157;29;20827;-65
2022/05/25 00:41:03;;;;;;;2.50;2.33;;;19.60;99.90;;;;;;4924464;29;20467;-65
2022/05/25 00:43:33;;;;;;;2.23;2.00;;;19.60;98.80;;;;;;4924846;29;20947;-65
2022/05/25 00:46:08;;;;;;;3.03;2.73;;;19.60;99.90;;;;;;4920533;29;20445;-65
2022/05/25 00:48:42;;;;;;;2.37;2.17;;;19.70;98.30;;;;;;4908392;29;20428;-66
2022/05/25 00:51:21;;;;;;;1.90;1.80;;;19.70;99.60;;;;;;4914611;29;20440;-65
2022/05/25 00:53:57;;;;;;;2.10;1.80;;;19.70;99.10;;;;;;4927049;29;20483;-67
2022/05/25 00:56:31;;;;;;;1.83;1.73;;;19.80;99.10;;;;;;4926092;29;20473;-66
2022/05/25 00:59:06;;;;;;;2.33;1.90;;;20.00;99.10;;;;;;4927911;29;20459;-66
2022/05/25 01:01:36;;;;;;;1.70;1.60;;;19.80;98.70;;;;;;4927161;29;20472;-66
2022/05/25 01:04:07;;;;;;;2.50;1.90;;;19.70;97.80;;;;;;4927405;29;20514;-67
2022/05/25 01:06:55;;;;;;;1.80;1.70;;;19.80;98.20;;;;;;4924117;29;20514;-68
2022/05/25 01:09:39;;;;;;;1.67;1.53;;;19.80;97.60;;;;;;4925666;29;20445;-65
2022/05/25 01:12:28;;;;;;;1.40;1.30;;;19.40;97.40;;;;;;4925174;29;20471;-67
2022/05/25 01:15:11;;;;;;;1.77;1.67;;;19.40;99.10;;;;;;4924260;29;20462;-65
2022/05/25 01:17:54;;;;;;;1.80;1.70;;;19.40;98.20;;;;;;4926440;29;20452;-66
2022/05/25 01:20:30;;;;;;;2.30;2.00;;;19.40;99.60;;;;;;4926376;29;20433;-67
2022/05/25 01:23:27;;;;;;;1.93;1.83;;;19.30;99.90;;;;;;4926442;29;20448;-65
2022/05/25 01:26:23;;;;;;;2.27;1.90;;;19.40;99.90;;;;;;4925238;29;20566;-68
2022/05/25 01:29:12;;;;;;;2.07;1.87;;;19.40;99.90;;;;;;4925614;29;20467;-67
2022/05/25 01:31:52;;;;;;;1.97;1.87;;;19.30;99.90;;;;;;4926647;29;20522;-68
2022/05/25 01:34:34;;;;;;;2.60;1.87;;;19.00;99.90;;;;;;4922283;29;20469;-66
2022/05/25 01:37:13;;;;;;;3.93;2.00;;;18.80;99.90;;;;;;4924145;29;20480;-66
2022/05/25 01:39:49;;;;;;;1.50;1.40;;;18.80;99.90;;;;;;4926824;29;21025;-67
2022/05/25 01:42:25;;;;;;;1.80;1.70;;;18.80;99.90;;;;;;4917405;29;20501;-68
2022/05/25 01:45:01;;;;;;;2.63;1.80;;;18.70;99.90;;;;;;4927395;29;20890;-68
2022/05/25 01:47:35;;;;;;;3.73;3.30;;;18.70;99.90;;;;;;4926021;29;20470;-67
2022/05/25 01:50:10;;;;;;;3.13;2.83;;;18.80;99.90;;;;;;4921576;29;20445;-67
2022/05/25 01:52:44;;;;;;;2.10;1.90;;;18.90;99.90;;;;;;4924957;29;20472;-67
2022/05/25 01:55:20;;;;;;;2.70;1.40;;;18.90;99.90;;;;;;4926410;29;20452;-68
2022/05/25 01:57:55;;;;;;;1.80;1.63;;;19.00;99.90;;;;;;4924485;29;20519;-68
2022/05/25 02:00:31;;;;;;;2.27;1.77;;;18.90;99.90;;;;;;4923755;29;20549;-67
2022/05/25 02:06:18;;;;;;;2.90;2.03;;;18.90;99.90;;;;;;4927242;29;20461;-67
2022/05/25 02:09:07;;;;;;;2.13;1.53;;;18.90;99.90;;;;;;4926860;29;20511;-68
2022/05/25 02:11:45;;;;;;;1.73;1.60;;;18.70;99.90;;;;;;4926387;29;20469;-66
2022/05/25 02:14:32;;;;;;;2.27;2.17;;;18.40;99.90;;;;;;4924044;29;20474;-67
2022/05/25 02:17:14;;;;;;;2.13;1.80;;;18.30;99.90;;;;;;4926189;29;20550;-67
2022/05/25 02:19:59;;;;;;;1.63;1.53;;;18.30;99.90;;;;;;4925145;29;20449;-68
2022/05/25 02:22:34;;;;;;;1.60;1.50;;;18.10;99.90;;;;;;4925262;29;20576;-68
2022/05/25 02:25:11;;;;;;;1.80;1.60;;;18.10;99.90;;;;;;4924030;29;20466;-67
2022/05/25 02:27:48;;;;;;;2.57;2.00;;;17.90;99.90;;;;;;4921632;29;20486;-67
2022/05/25 02:30:23;;;;;;;1.90;1.70;;;17.80;99.90;;;;;;4926304;29;20461;-66
2022/05/25 02:32:57;;;;;;;2.30;2.00;;;17.70;99.90;;;;;;4920792;29;20459;-66
2022/05/25 02:35:35;;;;;;;2.60;2.03;;;17.80;99.90;;;;;;4924792;29;20516;-67
2022/05/25 02:38:08;;;;;;;2.47;2.27;;;17.90;99.90;;;;;;4921240;29;20466;-66
2022/05/25 02:40:41;;;;;;;3.27;2.40;;;17.90;99.90;;;;;;4917206;29;20474;-66
2022/05/25 02:43:13;;;;;;;2.30;2.10;;;17.60;99.90;;;;;;4924415;29;20470;-66
2022/05/25 02:45:46;;;;;;;1.80;1.63;;;17.30;99.90;;;;;;4918978;29;20466;-69
2022/05/25 02:48:17;;;;;;;3.57;2.20;;;17.20;99.90;;;;;;4919745;29;20467;-67
2022/05/25 02:50:49;;;;;;;2.20;1.80;;;17.20;99.90;;;;;;4916082;29;20462;-65
2022/05/25 02:53:20;;;;;;;2.30;2.10;;;17.10;99.90;;;;;;4920284;29;20475;-67
2022/05/25 02:55:51;;;;;;;2.10;2.00;;;17.00;99.90;;;;;;4924030;29;20490;-67
2022/05/25 02:58:22;;;;;;;2.67;2.40;;;16.90;99.90;;;;;;4926374;29;20469;-67
2022/05/25 03:00:52;;;;;;;2.33;2.00;;;16.90;99.90;;;;;;4925139;29;20455;-66
2022/05/25 03:03:23;;;;;;;2.70;2.00;;;16.80;99.90;;;;;;4922918;29;20451;-66
2022/05/25 03:05:56;;;;;;;2.80;2.40;;;16.90;99.90;;;;;;4921549;29;20506;-66
2022/05/25 03:08:27;;;;;;;1.77;1.67;;;16.80;99.90;;;;;;4923046;29;20470;-65
2022/05/25 03:10:58;;;;;;;2.90;2.23;;;16.70;99.90;;;;;;4925428;29;20466;-65
2022/05/25 03:13:29;;;;;;;2.33;2.13;;;16.50;99.90;;;;;;4924947;29;20466;-66
2022/05/25 03:16:01;;;;;;;2.13;1.93;;;16.40;99.90;;;;;;4925690;29;20447;-66
2022/05/25 03:18:33;;;;;;;2.23;2.13;;;16.30;99.90;;;;;;4918838;29;20474;-65
2022/05/25 03:21:05;;;;;;;2.60;2.40;;;16.30;99.90;;;;;;4925496;29;20560;-66
2022/05/25 03:23:36;;;;;;;3.87;2.10;;;16.40;99.90;;;;;;4918540;29;20471;-65
2022/05/25 03:26:07;;;;;;;2.13;1.97;;;16.30;99.90;;;;;;4925057;29;20475;-66
2022/05/25 03:28:39;;;;;;;1.90;1.67;;;16.30;99.90;;;;;;4925117;29;21055;-65
2022/05/25 03:31:09;;;;;;;2.53;2.10;;;16.20;99.90;;;;;;4922758;29;20635;-66
2022/05/25 03:33:43;;;;;;;1.90;1.80;;;16.20;99.90;;;;;;4918691;29;20487;-66
2022/05/25 03:36:16;;;;;;;2.70;2.30;;;16.10;99.90;;;;;;4917373;29;20474;-67
2022/05/25 03:38:47;;;;;;;2.30;2.10;;;16.10;99.90;;;;;;4923532;29;20481;-66
2022/05/25 03:41:18;;;;;;;4.27;2.40;;;16.00;99.90;;;;;;4923302;29;20451;-65
2022/05/25 03:43:49;;;;;;;3.17;2.33;;;16.10;99.90;;;;;;4922833;29;20543;-66
2022/05/25 03:46:20;;;;;;;2.67;2.40;;;16.10;99.90;;;;;;4923189;29;20451;-67
2022/05/25 03:48:51;;;;;;;3.33;2.33;;;16.20;99.90;;;;;;4915420;29;20433;-67
2022/05/25 03:51:24;;;;;;;2.27;2.17;;;16.10;99.90;;;;;;4924221;29;20474;-67
2022/05/25 03:53:55;;;;;;;2.90;2.70;;;16.00;99.90;;;;;;4924287;29;20463;-67
2022/05/25 03:56:26;;;;;;;2.57;2.30;;;16.10;99.90;;;;;;4922805;29;20491;-68
2022/05/25 03:58:58;;;;;;;4.40;2.83;;;16.00;99.90;;;;;;4924906;29;20462;-68
2022/05/25 04:01:29;;;;;;;2.50;2.30;;;15.90;99.90;;;;;;4915520;29;20462;-67
2022/05/25 04:04:01;;;;;;;2.90;2.70;;;16.00;99.90;;;;;;4918321;29;20521;-68
2022/05/25 04:06:35;;;;;;;2.93;2.60;;;16.00;99.90;;;;;;4921087;29;20494;-66
2022/05/25 04:09:06;;;;;;;3.63;2.57;;;16.00;99.90;;;;;;4924275;29;20474;-68
2022/05/25 04:11:38;;;;;;;3.33;3.03;;;15.90;99.90;;;;;;4922945;29;20463;-67
2022/05/25 04:14:09;;;;;;;2.93;2.57;;;15.90;99.90;;;;;;4924656;29;20511;-67
2022/05/25 04:16:40;;;;;;;2.90;2.60;;;16.00;99.90;;;;;;4924010;29;20600;-66
2022/05/25 04:19:11;;;;;;;5.20;2.90;;;15.90;99.90;;;;;;4925226;29;20470;-67
2022/05/25 04:21:44;;;;;;;3.40;3.10;;;15.90;99.90;;;;;;4924108;29;20474;-66
2022/05/25 04:24:16;;;;;;;4.20;3.50;;;15.90;99.90;;;;;;4925149;29;20455;-68
2022/05/25 04:26:50;;;;;;;2.93;2.73;;;15.90;99.90;;;;;;4926038;29;20510;-66
2022/05/25 04:29:21;;;;;;;3.97;3.67;;;16.00;99.90;;;;;;4927731;29;20462;-67
2022/05/25 04:31:52;;;;;;;5.63;4.60;;;16.00;99.90;;;;;;4927606;29;20471;-66
2022/05/25 04:34:23;;;;;;;4.77;3.40;;;16.00;99.90;;;;;;4928874;29;20454;-67
2022/05/25 04:36:55;;;;;;;6.50;3.70;;;15.80;99.90;;;;;;4926297;29;20494;-67
2022/05/25 04:39:31;;;;;;;4.37;4.00;;;15.80;99.90;;;;;;4928017;29;20470;-67
2022/05/25 04:42:02;;;;;;;5.40;3.90;;;15.80;99.90;;;;;;4918218;29;20471;-67
2022/05/25 04:44:34;;;;;;;4.43;3.67;;;15.80;99.90;;;;;;4927093;29;20463;-67
2022/05/25 04:47:07;;;;;;;3.67;3.37;;;15.90;99.90;;;;;;4927092;29;20463;-69
2022/05/25 04:49:38;;;;;;;3.70;3.40;;;16.00;99.90;;;;;;4927810;29;20493;-67
2022/05/25 04:52:11;;;;;;;3.23;2.93;;;16.00;99.90;;;;;;4926501;29;20506;-67
2022/05/25 04:54:42;;;;;;;3.67;3.27;;;16.00;99.90;;;;;;4923628;29;20582;-67
2022/05/25 04:57:20;;;;;;;2.67;2.47;;;15.90;99.90;;;;;;4927066;29;20498;-68
2022/05/25 04:59:52;;;;;;;3.17;2.53;;;15.90;99.90;;;;;;4928129;29;20506;-68
2022/05/25 05:02:23;;;;;;;3.70;2.93;;;15.90;99.90;;;;;;4927637;29;20467;-67
2022/05/25 05:04:54;;;;;;;2.70;2.50;;;15.80;99.90;;;;;;4927149;29;20517;-68
2022/05/25 05:07:33;;;;;;;2.70;2.50;;;15.70;99.90;;;;;;4927158;29;20472;-67
2022/05/25 05:10:04;;;;;;;3.70;3.00;;;15.70;99.90;;;;;;4928641;29;20468;-68
2022/05/25 05:12:35;;;;;;;3.30;3.00;;;15.60;99.90;;;;;;4928028;29;20462;-68
2022/05/25 05:15:07;;;;;;;2.93;2.63;;;15.60;99.90;;;;;;4927186;29;20445;-69
2022/05/25 05:17:38;;;;;;;2.53;2.33;;;15.70;99.90;;;;;;4926022;29;20591;-69
2022/05/25 05:20:10;;;;;;;3.43;3.07;;;15.80;99.90;;;;;;4926611;29;20671;-67
2022/05/25 05:22:43;;;;;;;6.90;6.20;;;15.80;99.90;;;;;;4925818;29;20543;-67
2022/05/25 05:26:06;;;;;;;5.50;4.97;;;15.80;99.90;;;;;;4924815;29;20454;-68
2022/05/25 05:39:06;;;;;;;6.30;5.70;;;15.80;99.90;;;;;;4926152;29;20514;-68
2022/05/25 05:41:53;;;;;;;3.53;3.23;;;15.80;99.90;;;;;;4925637;29;20519;-68
2022/05/25 05:44:40;;;;;;;4.47;3.90;;;15.70;99.90;;;;;;4928222;29;20926;-71
2022/05/25 05:47:40;;;;;;;4.07;3.77;;;15.80;99.90;;;;;;4927592;29;20486;-68
2022/05/25 05:51:22;;;;;;;;;;;;;;;;;;;;;
2022/05/25 05:54:22;;;;;;;3.43;3.00;;;15.80;99.90;;;;;;4916152;29;20526;-68
2022/05/25 05:57:12;;;;;;;4.30;4.00;;;15.80;99.90;;;;;;4924474;29;20490;-69
2022/05/25 06:00:04;;;;;;;4.80;3.40;;;15.80;99.90;;;;;;4926906;29;20488;-68
2022/05/25 06:03:05;;;;;;;6.23;5.07;;;15.80;99.90;;;;;;4925905;29;20617;-68
2022/05/25 06:05:36;;;;;;;2.97;2.67;;;15.80;99.90;;;;;;4918151;29;20465;-68
2022/05/25 06:08:09;;;;;;;3.10;2.80;;;15.80;99.90;;;;;;4925650;29;20577;-68
2022/05/25 06:10:43;;;;;;;3.13;2.80;;;15.80;99.90;;;;;;4925555;29;20466;-68
2022/05/25 06:13:14;;;;;;;3.30;3.00;;;15.90;99.90;;;;;;4924193;29;20467;-68
2022/05/25 06:21:26;;;;;;;3.40;3.10;;;15.90;99.90;;;;;;4925510;29;20497;-68
2022/05/25 06:23:57;;;;;;;3.10;2.80;;;15.80;99.90;;;;;;4926534;29;20488;-68
2022/05/25 06:26:30;;;;;;;3.53;2.53;;;15.80;99.90;;;;;;4924022;29;20470;-68
2022/05/25 06:29:02;;;;;;;3.37;3.07;;;15.80;99.90;;;;;;4925527;29;20529;-68
2022/05/25 06:31:34;;;;;;;2.90;2.70;;;15.80;99.90;;;;;;4921339;29;20539;-68
2022/05/25 06:34:04;;;;;;;3.77;3.10;;;15.70;99.90;;;;;;4926038;29;20467;-68
2022/05/25 06:36:35;;;;;;;3.70;2.50;;;15.80;99.90;;;;;;4923421;29;20486;-68
2022/05/25 06:39:09;;;;;;;2.87;2.67;;;15.70;99.90;;;;;;4924952;29;20506;-68
2022/05/25 06:41:41;;;;;;;3.47;3.17;;;15.70;99.90;;;;;;4924780;29;20473;-67
2022/05/25 06:44:12;;;;;;;3.20;2.90;;;15.60;99.90;;;;;;4923257;29;20474;-67
2022/05/25 06:46:43;;;;;;;2.93;2.73;;;15.70;99.90;;;;;;4924331;29;20527;-67
2022/05/25 06:49:16;;;;;;;3.13;2.83;;;15.70;99.90;;;;;;4926338;29;20474;-68
2022/05/25 06:51:47;;;;;;;3.37;3.07;;;15.70;99.90;;;;;;4923074;29;20489;-68
2022/05/25 06:54:20;;;;;;;3.17;2.87;;;15.70;99.90;;;;;;4924541;29;20471;-68
2022/05/25 06:56:52;;;;;;;4.10;3.53;;;15.70;99.90;;;;;;4923256;29;20465;-68
2022/05/25 06:59:28;;;;;;;3.23;2.93;;;15.70;99.90;;;;;;4925524;29;20522;-68
2022/05/25 07:01:59;;;;;;;3.43;3.03;;;15.60;99.90;;;;;;4925613;29;20470;-68
2022/05/25 07:04:30;;;;;;;2.97;2.77;;;15.60;99.90;;;;;;4922658;29;20471;-67
2022/05/25 07:07:06;;;;;;;3.10;2.80;;;15.60;99.90;;;;;;4911696;29;20458;-67
2022/05/25 07:09:39;;;;;;;3.77;3.47;;;15.60;99.90;;;;;;4926440;29;20530;-68
2022/05/25 07:12:12;;;;;;;3.93;3.20;;;15.60;99.90;;;;;;4925137;29;20589;-67
2022/05/25 07:14:43;;;;;;;3.60;3.30;;;15.60;99.90;;;;;;4924145;29;20475;-66
2022/05/25 07:17:14;;;;;;;4.00;3.70;;;15.60;99.90;;;;;;4924698;29;20470;-68
2022/05/25 07:19:44;;;;;;;3.83;3.53;;;15.60;99.90;;;;;;4924970;29;20486;-68
2022/05/25 07:22:16;;;;;;;4.27;3.10;;;15.60;99.90;;;;;;4923712;29;20482;-68
2022/05/25 07:24:49;;;;;;;4.20;3.80;;;15.60;99.90;;;;;;4924275;29;20466;-68
2022/05/25 07:27:21;;;;;;;4.03;3.60;;;15.60;99.90;;;;;;4922340;29;20471;-68
2022/05/25 07:29:52;;;;;;;4.03;3.63;;;15.60;99.90;;;;;;4925562;29;20494;-68
2022/05/25 07:32:24;;;;;;;4.40;4.00;;;15.60;99.90;;;;;;4924941;29;21130;-68
2022/05/25 07:34:59;;;;;;;4.00;3.70;;;15.60;99.90;;;;;;4924799;29;21408;-67
2022/05/25 07:37:37;;;;;;;5.70;4.40;;;15.60;99.90;;;;;;4921473;29;20466;-67
2022/05/25 07:40:13;;;;;;;4.70;4.30;;;15.60;99.90;;;;;;4925185;29;21024;-67
2022/05/25 07:42:50;;;;;;;4.43;3.97;;;15.60;99.90;;;;;;4923935;29;20498;-68
2022/05/25 07:45:21;;;;;;;4.77;4.37;;;15.70;99.90;;;;;;4926611;29;20463;-68
2022/05/25 07:47:53;;;;;;;4.63;4.27;;;15.60;99.90;;;;;;4926044;29;20530;-68
2022/05/25 07:50:25;;;;;;;5.00;4.57;;;15.60;99.90;;;;;;4924302;29;20538;-68
2022/05/25 07:52:59;;;;;;;4.00;3.70;;;15.50;99.90;;;;;;4925976;29;20522;-68
2022/05/25 07:55:32;;;;;;;4.00;3.70;;;15.50;99.90;;;;;;4923000;29;20445;-68
2022/05/25 07:58:05;;;;;;;4.00;3.70;;;15.50;99.90;;;;;;4916640;29;20490;-68
2022/05/25 08:00:36;;;;;;;4.80;4.40;;;15.50;99.90;;;;;;4922279;29;20498;-68
2022/05/25 08:05:58;;;;;;;6.77;5.50;;;15.50;99.90;;;;;;4924250;29;20511;-68
2022/05/25 08:08:29;;;;;;;5.60;4.30;;;15.50;99.90;;;;;;4924726;29;20468;-68
2022/05/25 08:11:03;;;;;;;4.77;3.87;;;15.50;99.90;;;;;;4924493;29;20462;-68
2022/05/25 08:13:38;;;;;;;4.60;3.77;;;15.40;99.90;;;;;;4923109;29;20473;-68
2022/05/25 08:16:12;;;;;;;4.87;4.50;;;15.40;99.90;;;;;;4923894;29;20466;-68
2022/05/25 08:18:43;;;;;;;3.70;3.40;;;15.50;99.90;;;;;;4922224;29;20494;-68
2022/05/25 08:21:14;;;;;;;4.43;4.13;;;15.50;99.90;;;;;;4922973;29;20475;-68
2022/05/25 08:24:05;;;;;;;4.30;3.90;;;15.50;99.90;;;;;;4924447;29;20829;-68
2022/05/25 08:26:38;;;;;;;4.80;3.60;;;15.50;99.90;;;;;;4920221;29;20474;-68
2022/05/25 08:29:11;;;;;;;4.67;4.27;;;15.50;99.90;;;;;;4924211;29;20494;-67
2022/05/25 08:31:42;;;;;;;4.40;3.90;;;15.40;99.90;;;;;;4923979;29;20477;-68
2022/05/25 08:34:12;;;;;;;4.60;4.20;;;15.50;99.90;;;;;;4924564;29;20554;-67
2022/05/25 08:36:43;;;;;;;13.00;9.67;;;15.50;99.90;;;;;;4924403;29;20502;-68
2022/05/25 08:39:14;;;;;;;6.53;5.93;;;15.50;99.90;;;;;;4921732;29;20512;-68
2022/05/25 08:41:53;;;;;;;7.00;3.93;;;15.50;99.90;;;;;;4924566;29;20463;-67
2022/05/25 08:44:26;;;;;;;4.90;4.37;;;15.40;99.90;;;;;;5090740;23;20519;-62
2022/05/25 08:47:00;;;;;;;4.10;3.70;;;15.40;99.90;;;;;;4917401;29;20629;-62
2022/05/25 08:49:34;;;;;;;4.30;4.00;;;15.40;99.90;;;;;;4923390;29;20858;-62
2022/05/25 08:52:06;;;;;;;4.70;4.30;;;15.40;99.90;;;;;;4920694;29;20476;-63
2022/05/25 08:54:38;;;;;;;3.63;3.33;;;15.50;99.90;;;;;;4924050;29;20470;-63
2022/05/25 08:57:14;;;;;;;4.10;3.73;;;15.50;99.90;;;;;;4923384;29;20458;-62
2022/05/25 08:59:53;;;;;;;5.47;4.10;;;15.50;99.90;;;;;;4924914;29;20845;-63
2022/05/25 09:02:31;;;;;;;3.87;3.57;;;15.40;99.90;;;;;;4923681;29;20466;-63
2022/05/25 09:05:16;;;;;;;4.27;3.87;;;15.50;99.90;;;;;;4912204;29;20474;-62
2022/05/25 09:07:57;;;;;;;4.90;4.40;;;15.40;99.90;;;;;;4924022;29;20473;-63
2022/05/25 09:10:29;;;;;;;3.77;3.47;;;15.40;99.90;;;;;;4923471;29;20470;-63
2022/05/25 09:13:06;;;;;;;3.90;3.60;;;15.50;99.90;;;;;;4924750;29;20462;-63
2022/05/25 09:16:15;;;;;;;3.80;3.50;;;15.50;99.90;;;;;;4927750;29;20472;-63
2022/05/25 09:18:39;;;;;;;4.10;3.60;;;15.50;99.90;;;;;;4926222;29;20490;-63
2022/05/25 09:21:10;;;;;;;4.73;4.33;;;15.40;99.90;;;;;;4927512;29;20468;-63
2022/05/25 09:23:42;;;;;;;4.80;4.40;;;15.30;99.90;;;;;;4920528;29;20486;-62
2022/05/25 09:26:15;;;;;;;3.73;3.53;;;15.40;99.90;;;;;;4925353;29;20498;-63
2022/05/25 09:28:49;;;;;;;4.60;4.03;;;15.40;99.90;;;;;;4925615;29;20825;-62
2022/05/25 09:31:26;;;;;;;4.03;3.73;;;15.40;99.90;;;;;;4927340;29;20475;-63
2022/05/25 09:34:05;;;;;;;4.27;3.87;;;15.30;99.90;;;;;;4927196;29;20451;-63
2022/05/25 09:36:44;;;;;;;4.20;3.80;;;15.40;99.90;;;;;;4925853;29;20477;-62
2022/05/25 09:39:25;;;;;;;4.60;3.97;;;15.40;99.90;;;;;;4922218;29;20459;-63
2022/05/25 09:42:02;;;;;;;5.00;4.50;;;15.30;99.90;;;;;;4925669;29;20473;-63
2022/05/25 09:44:34;;;;;;;4.33;4.00;;;15.40;99.90;;;;;;4925713;29;20486;-63
2022/05/25 09:47:10;;;;;;;4.03;3.73;;;15.40;99.90;;;;;;4927456;29;20490;-63
2022/05/25 09:49:44;;;;;;;4.60;4.20;;;15.40;99.90;;;;;;4925313;29;20972;-63
2022/05/25 09:52:21;;;;;;;5.00;4.50;;;15.40;99.90;;;;;;4927203;29;20800;-63
2022/05/25 09:54:59;;;;;;;4.17;3.73;;;15.30;99.90;;;;;;4917261;29;20458;-62
2022/05/25 09:57:39;;;;;;;5.33;4.83;;;15.30;99.90;;;;;;4926317;29;20511;-63
2022/05/25 10:00:16;;;;;;;4.40;4.10;;;15.30;99.90;;;;;;4923811;29;20497;-62
2022/05/25 10:02:52;;;;;;;4.70;4.33;;;15.30;99.90;;;;;;4926290;29;20485;-63
2022/05/25 10:05:27;;;;;;;5.20;4.77;;;15.30;99.90;;;;;;4918834;29;20474;-63
2022/05/25 10:08:03;;;;;;;5.30;4.80;;;15.30;99.90;;;;;;4926605;29;20470;-63
2022/05/25 10:10:36;;;;;;;6.77;6.17;;;15.30;99.90;;;;;;4925159;29;20826;-63
2022/05/25 10:13:17;;;;;;;6.37;5.87;;;15.30;99.90;;;;;;4916906;29;20547;-62
2022/05/25 10:15:51;;;;;;;7.47;6.80;;;15.30;99.90;;;;;;4924867;29;20459;-63
2022/05/25 10:18:37;;;;;;;7.93;7.07;;;15.30;99.90;;;;;;4926306;29;20463;-63
2022/05/25 10:21:14;;;;;;;7.33;6.63;;;15.30;99.90;;;;;;4926652;29;20512;-62
2022/05/25 10:23:49;;;;;;;6.90;6.20;;;15.30;99.90;;;;;;4925147;29;20481;-63
2022/05/25 10:26:34;;;;;;;7.07;6.40;;;15.30;99.90;;;;;;4925358;29;20819;-63
2022/05/25 10:29:09;;;;;;;6.70;6.10;;;15.30;99.90;;;;;;4925560;29;20478;-62
2022/05/25 10:37:39;;;;;;;6.30;5.70;;;15.30;99.90;;;;;;4925907;29;20477;-63
2022/05/25 10:40:12;;;;;;;5.40;4.90;;;15.30;99.90;;;;;;4924866;29;20852;-63
2022/05/25 10:42:50;;;;;;;6.07;5.57;;;15.30;99.90;;;;;;4927235;29;20506;-63
2022/05/25 10:45:23;;;;;;;5.37;4.87;;;15.20;99.90;;;;;;4926875;29;20544;-62
2022/05/25 10:48:07;;;;;;;5.60;5.10;;;15.30;99.90;;;;;;4926714;29;20459;-62
2022/05/25 10:50:47;;;;;;;6.03;5.33;;;15.30;99.90;;;;;;4926119;29;20576;-62
2022/05/25 10:53:43;;;;;;;5.67;5.27;;;15.10;99.90;;;;;;4926296;29;20442;-63
2022/05/25 10:56:26;;;;;;;5.00;4.60;;;15.20;99.90;;;;;;4926676;29;20458;-62
2022/05/25 10:59:13;;;;;;;4.33;4.03;;;15.20;99.90;;;;;;4924728;29;20465;-63
2022/05/25 11:02:03;;;;;;;4.40;4.10;;;15.10;99.90;;;;;;4925379;29;20494;-62
2022/05/25 11:05:01;;;;;;;3.90;3.53;;;15.00;99.90;;;;;;4923590;29;20465;-62
2022/05/25 11:07:36;;;;;;;4.17;3.63;;;15.10;99.90;;;;;;4923648;29;20471;-62
2022/05/25 11:10:23;;;;;;;4.73;4.33;;;15.10;99.90;;;;;;4924933;29;20462;-62
2022/05/25 11:13:11;;;;;;;5.03;4.37;;;15.20;99.90;;;;;;4924899;29;20474;-63
2022/05/25 11:15:49;;;;;;;4.70;4.20;;;15.10;99.90;;;;;;4925491;29;20477;-62
2022/05/25 11:18:47;;;;;;;4.20;3.80;;;14.90;99.90;;;;;;4925313;29;20480;-63
2022/05/25 11:21:31;;;;;;;5.07;4.60;;;14.90;99.90;;;;;;4921993;29;20506;-63
2022/05/25 11:24:20;;;;;;;5.67;4.50;;;14.90;99.90;;;;;;4921750;29;20466;-62
2022/05/25 11:27:06;;;;;;;4.70;4.30;;;14.90;99.90;;;;;;4924712;29;20481;-63
2022/05/25 11:29:59;;;;;;;5.20;4.13;;;14.90;99.90;;;;;;4923883;29;20458;-63
2022/05/25 11:32:43;;;;;;;6.00;4.40;;;14.90;99.90;;;;;;4925207;29;20467;-63
2022/05/25 11:35:31;;;;;;;6.13;3.93;;;14.90;99.90;;;;;;4923853;29;20494;-62
2022/05/25 11:38:17;;;;;;;2.70;2.50;;;14.90;99.90;;;;;;4920146;29;20451;-63
2022/05/25 11:40:57;;;;;;;3.83;2.50;;;14.90;99.90;;;;;;4923563;29;20498;-62
2022/05/25 11:43:52;;;;;;;2.40;2.20;;;14.80;99.90;;;;;;4924447;29;20597;-63
2022/05/25 11:50:23;;;;;;;1.83;1.73;;;14.70;99.90;;;;;;4923161;29;20466;-62
2022/05/25 11:53:41;;;;;;;1.80;1.70;;;14.60;99.90;;;;;;4921810;29;20501;-63
2022/05/25 11:56:41;;;;;;;2.07;1.70;;;14.50;99.90;;;;;;4923808;29;22277;-63
2022/05/25 11:59:30;;;;;;;3.03;1.80;;;14.50;99.90;;;;;;4924270;29;20953;-62
2022/05/25 12:02:15;;;;;;;2.27;1.67;;;14.30;99.90;;;;;;4923815;29;20494;-62
2022/05/25 12:05:05;;;;;;;1.90;1.63;;;14.30;99.90;;;;;;4921678;29;20565;-63
2022/05/25 12:07:54;;;;;;;2.80;2.17;;;14.30;99.90;;;;;;4923623;29;20466;-62
2022/05/25 12:10:32;;;;;;;2.03;1.53;;;14.10;99.90;;;;;;4923405;29;20478;-62
2022/05/25 12:13:14;;;;;;;4.10;2.00;;;13.90;99.90;;;;;;4923646;29;21048;-62
2022/05/25 12:15:58;;;;;;;2.90;2.10;;;13.90;99.90;;;;;;4924282;29;20470;-62
2022/05/25 12:18:37;;;;;;;1.87;1.73;;;13.90;99.90;;;;;;4916057;29;20470;-62
2022/05/25 12:21:14;;;;;;;2.00;1.70;;;13.80;99.90;;;;;;4924186;29;20516;-63
2022/05/25 12:23:52;;;;;;;2.60;1.90;;;13.70;99.90;;;;;;4920890;29;20545;-62
2022/05/25 12:26:26;;;;;;;2.83;2.50;;;13.70;99.90;;;;;;4916707;29;20474;-62
2022/05/25 12:29:06;;;;;;;2.20;2.00;;;13.60;99.90;;;;;;4923841;29;20500;-62
2022/05/25 12:31:38;;;;;;;2.50;1.97;;;13.60;99.90;;;;;;4923440;29;20466;-62
2022/05/25 12:34:17;;;;;;;2.33;2.10;;;13.60;99.90;;;;;;4924115;29;20470;-62
2022/05/25 12:36:48;;;;;;;5.97;1.90;;;13.60;99.90;;;;;;4924384;29;20481;-62
2022/05/25 12:40:00;;;;;;;3.10;2.23;;;13.70;99.90;;;;;;4922827;29;20466;-63
2022/05/25 12:42:40;;;;;;;4.73;2.30;;;13.70;99.90;;;;;;4914527;29;20509;-62
2022/05/25 12:48:48;;;;;;;8.60;2.33;;;13.60;99.90;;;;;;4919722;29;20473;-63
2022/05/25 12:51:38;;;;;;;2.03;1.83;;;13.60;99.90;;;;;;4927089;29;20465;-63
2022/05/25 12:54:24;;;;;;;2.50;1.87;;;13.70;99.90;;;;;;4926822;29;20469;-63
2022/05/25 12:56:57;;;;;;;2.17;1.80;;;13.70;99.90;;;;;;4926593;29;20470;-63
2022/05/25 12:59:33;;;;;;;2.83;1.70;;;13.60;99.90;;;;;;4925750;29;20462;-63
2022/05/25 13:02:27;;;;;;;3.87;1.67;;;13.70;99.90;;;;;;4927597;29;20494;-62
2022/05/25 13:05:02;;;;;;;2.13;1.63;;;13.70;99.90;;;;;;4919621;29;20546;-62
2022/05/25 13:07:45;;;;;;;3.67;1.90;;;13.70;99.90;;;;;;4927194;29;20560;-62
2022/05/25 13:10:25;;;;;;;2.50;2.30;;;13.80;99.90;;;;;;4914897;29;20470;-63
2022/05/25 13:12:59;;;;;;;1.83;1.70;;;13.80;99.90;;;;;;4925538;29;20489;-63
2022/05/25 13:15:42;;;;;;;3.00;1.80;;;13.70;99.90;;;;;;4927943;29;20462;-62
2022/05/25 13:18:45;;;;;;;2.73;2.00;;;13.70;99.90;;;;;;4926033;29;20480;-62
2022/05/25 13:21:40;;;;;;;1.73;1.63;;;13.60;99.90;;;;;;4926158;29;20912;-63
2022/05/25 13:24:23;;;;;;;4.03;2.50;;;13.60;99.90;;;;;;4924177;29;20953;-63
2022/05/25 13:27:22;;;;;;;4.03;2.17;;;13.60;99.90;;;;;;4925266;29;20478;-63
2022/05/25 13:30:08;;;;;;;2.63;2.07;;;13.70;99.90;;;;;;4925343;29;20785;-63
2022/05/25 13:32:47;;;;;;;1.60;1.50;;;13.70;99.90;;;;;;4925974;29;20476;-63
2022/05/25 13:35:38;;;;;;;2.27;1.53;;;13.80;99.90;;;;;;4922564;29;20971;-63
2022/05/25 13:38:28;;;;;;;2.27;2.07;;;13.80;99.90;;;;;;4925338;29;20466;-63
2022/05/25 13:41:07;;;;;;;2.17;1.97;;;13.90;99.90;;;;;;4923724;29;20482;-63
2022/05/25 13:43:50;;;;;;;2.50;2.30;;;14.00;99.90;;;;;;4926173;29;20553;-63
2022/05/25 13:46:40;;;;;;;1.50;1.40;;;14.10;99.90;;;;;;4927813;29;20443;-64
2022/05/25 13:49:21;;;;;;;1.63;1.53;;;14.10;99.90;;;;;;4922614;29;20461;-63
2022/05/25 13:51:53;;;;;;;1.53;1.43;;;14.10;99.90;;;;;;4927845;29;20458;-63
2022/05/25 13:54:37;;;;;;;1.93;1.50;;;14.20;99.90;;;;;;4926826;29;20581;-63
2022/05/25 13:57:48;;;;;;;2.70;2.50;;;14.30;99.90;;;;;;4927016;29;20487;-63
2022/05/25 14:00:37;;;;;;;1.93;1.83;;;14.30;99.90;;;;;;4927597;29;20526;-63
2022/05/25 14:03:21;;;;;;;2.40;1.70;;;14.30;99.90;;;;;;4923892;29;20498;-64
2022/05/25 14:05:54;;;;;;;1.60;1.50;;;14.40;99.90;;;;;;4918788;29;20581;-63
2022/05/25 14:11:26;;;;;;;2.77;1.60;;;14.40;99.90;;;;;;4925304;29;20794;-64
2022/05/25 14:13:57;;;;;;;1.80;1.57;;;14.40;99.90;;;;;;4927957;29;20455;-64
2022/05/25 14:16:29;;;;;;;4.37;2.00;;;14.40;99.90;;;;;;4928314;29;20446;-63
2022/05/25 14:19:04;;;;;;;1.57;1.47;;;14.50;99.90;;;;;;4927071;29;20474;-63